Time;durP1;ratioP1;P1;durP2;ratioP2;P2;SDS_P1;SDS_P2;PMS_P1;PMS_P2;Temp;Humidity;BMP_temperature;BMP_pressure;BME280_temperature;BME280_humidity;BME280_pressure;Samples;Min_cycle;Max_cycle;Signal;HPM_P1;HPM_P2
2023/04/25 00:02:13;;;;;;;17.63;4.20;;;8.90;99.90;;;;;;6060114;23;98819;-79
2023/04/25 00:04:40;;;;;;;16.30;3.25;;;8.80;99.90;;;;;;6062078;23;99502;-79
2023/04/25 00:07:07;;;;;;;10.57;3.10;;;8.80;99.90;;;;;;6061283;23;100835;-79
2023/04/25 00:09:34;;;;;;;14.80;3.63;;;8.80;99.90;;;;;;6086459;23;99112;-79
2023/04/25 00:12:01;;;;;;;12.82;3.35;;;8.90;99.90;;;;;;6085883;23;98881;-79
2023/04/25 00:14:29;;;;;;;14.93;3.70;;;8.80;99.90;;;;;;6062313;23;100092;-79
2023/04/25 00:16:56;;;;;;;14.50;3.67;;;8.80;99.90;;;;;;6060747;23;104098;-79
2023/04/25 00:19:23;;;;;;;13.70;3.47;;;8.80;99.90;;;;;;6086245;23;98445;-79
2023/04/25 00:21:50;;;;;;;13.07;4.00;;;8.90;99.90;;;;;;6086204;23;98508;-79
2023/04/25 00:24:17;;;;;;;14.27;3.42;;;8.90;99.90;;;;;;6060937;23;102608;-79
2023/04/25 00:26:44;;;;;;;14.20;4.50;;;8.90;99.90;;;;;;6062938;23;99088;-79
2023/04/25 00:29:11;;;;;;;13.35;4.25;;;8.90;99.90;;;;;;6061256;23;98653;-79
2023/04/25 00:31:38;;;;;;;13.20;3.88;;;8.90;99.90;;;;;;6063675;23;97728;-79
2023/04/25 00:34:06;;;;;;;13.15;3.55;;;8.90;99.90;;;;;;6060695;23;102102;-79
2023/04/25 00:36:35;;;;;;;10.32;3.15;;;8.90;99.90;;;;;;6060994;23;101584;-79
2023/04/25 00:39:02;;;;;;;12.63;3.55;;;8.90;99.90;;;;;;6036848;23;99393;-79
2023/04/25 00:41:30;;;;;;;12.30;3.47;;;8.80;99.90;;;;;;6061376;23;98559;-79
2023/04/25 00:43:59;;;;;;;13.00;3.63;;;8.80;99.90;;;;;;6062699;23;99249;-79
2023/04/25 00:46:26;;;;;;;13.00;3.60;;;8.80;99.90;;;;;;6060745;23;101778;-79
2023/04/25 00:48:53;;;;;;;10.35;3.85;;;8.80;99.90;;;;;;6061151;23;98573;-79
2023/04/25 00:51:21;;;;;;;16.65;4.70;;;8.80;99.90;;;;;;6061110;23;98646;-79
2023/04/25 00:53:50;;;;;;;23.02;4.35;;;8.80;99.90;;;;;;6062608;23;99320;-79
2023/04/25 00:56:18;;;;;;;10.38;3.72;;;8.80;99.90;;;;;;6061276;23;99071;-79
2023/04/25 00:58:45;;;;;;;14.65;4.43;;;8.70;99.90;;;;;;6061231;23;100391;-79
2023/04/25 01:01:13;;;;;;;14.85;3.53;;;8.70;99.90;;;;;;6061122;23;98558;-79
2023/04/25 01:03:44;;;;;;;14.02;3.40;;;8.70;99.90;;;;;;6060302;23;103044;-79
2023/04/25 01:06:11;;;;;;;8.93;3.33;;;8.70;99.90;;;;;;6061022;23;102234;-79
2023/04/25 01:08:39;;;;;;;22.08;4.57;;;8.60;99.90;;;;;;6086042;23;98583;-79
2023/04/25 01:11:06;;;;;;;12.15;3.00;;;8.60;99.90;;;;;;6036890;23;98629;-79
2023/04/25 01:13:34;;;;;;;16.23;3.58;;;8.60;99.90;;;;;;6061003;23;102020;-79
2023/04/25 01:16:02;;;;;;;12.15;3.35;;;8.50;99.90;;;;;;6060124;23;101534;-79
2023/04/25 01:18:29;;;;;;;8.68;2.78;;;8.40;99.90;;;;;;6061438;23;98846;-78
2023/04/25 01:21:09;;;;;;;11.48;3.00;;;8.10;99.90;;;;;;6061406;23;97860;-79
2023/04/25 01:23:39;;;;;;;10.60;3.30;;;7.90;99.90;;;;;;6036543;23;100321;-79
2023/04/25 01:26:09;;;;;;;14.60;3.47;;;7.70;99.90;;;;;;6060776;23;98991;-79
2023/04/25 01:28:37;;;;;;;13.23;3.25;;;7.60;99.90;;;;;;6060672;23;99253;-79
2023/04/25 01:31:05;;;;;;;11.75;3.20;;;7.50;99.90;;;;;;6060945;23;98617;-79
2023/04/25 01:33:33;;;;;;;13.13;3.25;;;7.50;99.90;;;;;;6060964;23;99247;-79
2023/04/25 01:36:00;;;;;;;9.70;3.10;;;7.50;99.90;;;;;;6062427;23;99092;-79
2023/04/25 01:38:27;;;;;;;16.02;3.47;;;7.50;99.90;;;;;;6062995;23;98424;-79
2023/04/25 01:40:55;;;;;;;17.15;3.15;;;7.50;99.90;;;;;;6060953;23;98558;-79
2023/04/25 01:43:22;;;;;;;12.82;3.67;;;7.60;99.90;;;;;;6036210;23;101858;-79
2023/04/25 01:45:50;;;;;;;16.20;3.65;;;7.60;99.90;;;;;;6061127;23;101432;-79
2023/04/25 01:48:17;;;;;;;15.35;3.22;;;7.60;99.90;;;;;;6060641;23;98495;-79
2023/04/25 01:50:46;;;;;;;12.13;3.35;;;7.60;99.90;;;;;;6060949;23;98615;-79
2023/04/25 01:53:14;;;;;;;11.48;2.78;;;7.60;99.90;;;;;;6061620;23;99912;-79
2023/04/25 01:55:43;;;;;;;11.57;3.80;;;7.50;99.90;;;;;;6060841;23;102148;-79
2023/04/25 01:58:14;;;;;;;13.63;3.00;;;7.50;99.90;;;;;;6061023;23;98682;-79
2023/04/25 02:01:10;;;;;;;10.38;3.33;;;7.40;99.90;;;;;;6068627;23;98480;-79
2023/04/25 02:03:44;;;;;;;;;;;7.40;99.90;;;;;;6061395;23;101614;-79
2023/04/25 02:06:24;;;;;;;11.63;2.75;;;7.30;99.90;;;;;;6040482;23;100922;-79
2023/04/25 02:08:53;;;;;;;9.85;2.83;;;7.20;99.90;;;;;;6061157;23;98695;-79
2023/04/25 02:11:20;;;;;;;13.75;3.70;;;7.20;99.90;;;;;;6061181;23;97767;-79
2023/04/25 02:13:56;;;;;;;10.55;2.90;;;7.20;99.90;;;;;;6038240;23;101160;-79
2023/04/25 02:16:38;;;;;;;17.25;2.97;;;7.20;99.90;;;;;;6062528;23;99011;-79
2023/04/25 02:19:07;;;;;;;22.05;3.78;;;7.30;99.90;;;;;;6060395;23;99149;-79
2023/04/25 02:21:35;;;;;;;10.13;2.78;;;7.30;99.90;;;;;;6061451;23;98562;-79
2023/04/25 02:24:03;;;;;;;9.70;2.40;;;7.30;99.90;;;;;;6060314;23;101963;-79
2023/04/25 02:26:30;;;;;;;13.48;3.25;;;7.40;99.90;;;;;;6060393;23;101490;-79
2023/04/25 02:28:57;;;;;;;9.48;2.30;;;7.40;99.90;;;;;;6061023;23;98462;-79
2023/04/25 02:31:24;;;;;;;13.40;3.22;;;7.50;99.90;;;;;;6060600;23;98614;-79
2023/04/25 02:33:51;;;;;;;14.77;3.30;;;7.50;99.90;;;;;;6062243;23;99211;-79
2023/04/25 02:36:18;;;;;;;10.20;3.00;;;7.60;99.90;;;;;;6060640;23;101724;-79
2023/04/25 02:38:48;;;;;;;12.80;2.95;;;7.60;99.90;;;;;;6037033;23;98509;-79
2023/04/25 02:41:15;;;;;;;11.38;3.20;;;7.60;99.90;;;;;;6036747;23;98646;-79
2023/04/25 02:43:42;;;;;;;9.98;3.08;;;7.70;99.90;;;;;;6084696;23;99980;-79
2023/04/25 02:46:08;;;;;;;18.65;3.33;;;7.70;99.90;;;;;;6060381;23;102517;-79
2023/04/25 02:48:35;;;;;;;13.85;3.55;;;7.70;99.90;;;;;;6062231;23;98414;-79
2023/04/25 02:51:02;;;;;;;9.52;2.22;;;7.70;99.90;;;;;;6060851;23;98450;-79
2023/04/25 02:53:29;;;;;;;13.30;3.20;;;7.60;99.90;;;;;;6060327;23;101629;-79
2023/04/25 02:55:58;;;;;;;11.32;2.72;;;7.60;99.90;;;;;;6085022;23;99164;-79
2023/04/25 02:58:25;;;;;;;11.27;3.78;;;7.60;99.90;;;;;;6060376;23;98520;-79
2023/04/25 03:00:53;;;;;;;20.80;2.70;;;7.50;99.90;;;;;;6061138;23;97964;-78
2023/04/25 03:03:23;;;;;;;13.32;2.97;;;7.50;99.90;;;;;;6060014;23;101834;-79
2023/04/25 03:05:51;;;;;;;13.57;2.72;;;7.50;99.90;;;;;;6060486;23;101488;-79
2023/04/25 03:08:25;;;;;;;7.00;2.35;;;7.50;99.90;;;;;;6060072;23;99292;-79
2023/04/25 03:10:55;;;;;;;10.18;2.20;;;7.50;99.90;;;;;;6060574;23;98520;-79
2023/04/25 03:13:22;;;;;;;11.75;2.60;;;7.50;99.90;;;;;;6035693;23;101700;-79
2023/04/25 03:15:49;;;;;;;14.88;3.22;;;7.50;99.90;;;;;;6060317;23;101376;-79
2023/04/25 03:18:18;;;;;;;10.27;2.53;;;7.50;99.90;;;;;;6060199;23;98464;-79
2023/04/25 03:20:46;;;;;;;8.55;2.53;;;7.60;99.90;;;;;;6060538;23;98615;-79
2023/04/25 03:23:13;;;;;;;12.85;2.53;;;7.60;99.90;;;;;;6060108;23;101978;-79
2023/04/25 03:25:41;;;;;;;9.02;2.50;;;7.60;99.90;;;;;;6060421;23;101673;-79
2023/04/25 03:28:09;;;;;;;15.10;2.20;;;7.60;99.90;;;;;;6062362;23;98404;-79
2023/04/25 03:30:36;;;;;;;14.32;2.63;;;7.60;99.90;;;;;;6060571;23;99684;-79
2023/04/25 03:33:03;;;;;;;12.77;2.58;;;7.50;99.90;;;;;;6059626;23;102623;-79
2023/04/25 03:35:30;;;;;;;7.35;2.60;;;7.50;99.90;;;;;;6035668;23;102352;-79
2023/04/25 03:37:57;;;;;;;9.07;2.20;;;7.50;99.90;;;;;;6036549;23;98529;-79
2023/04/25 03:40:28;;;;;;;6.85;2.00;;;7.60;99.90;;;;;;6060930;23;99380;-79
2023/04/25 03:43:08;;;;;;;12.40;2.50;;;7.60;99.90;;;;;;6039698;23;101860;-79
2023/04/25 03:45:36;;;;;;;12.77;2.25;;;7.60;99.90;;;;;;6036810;23;100910;-79
2023/04/25 03:48:03;;;;;;;14.45;2.80;;;7.60;99.90;;;;;;6061448;23;98607;-79
2023/04/25 03:50:32;;;;;;;12.27;2.97;;;7.60;99.90;;;;;;6062182;23;98283;-79
2023/04/25 03:52:59;;;;;;;10.68;3.08;;;7.60;99.90;;;;;;6061051;23;101726;-79
2023/04/25 03:55:29;;;;;;;8.43;2.25;;;7.70;99.90;;;;;;6037370;23;99884;-79
2023/04/25 03:57:57;;;;;;;10.55;2.78;;;7.70;99.90;;;;;;6036870;23;99271;-79
2023/04/25 04:00:25;;;;;;;11.60;2.67;;;7.70;99.90;;;;;;6061184;23;99279;-79
2023/04/25 04:02:52;;;;;;;11.73;2.67;;;7.70;99.90;;;;;;6061047;23;101909;-79
2023/04/25 04:05:19;;;;;;;10.77;2.33;;;7.70;99.90;;;;;;6060951;23;101583;-79
2023/04/25 04:07:52;;;;;;;11.85;2.50;;;7.70;99.90;;;;;;6061904;23;99088;-79
2023/04/25 04:10:19;;;;;;;10.82;2.53;;;7.60;99.90;;;;;;6061595;23;98682;-79
2023/04/25 04:12:46;;;;;;;18.25;3.10;;;7.60;99.90;;;;;;6036769;23;103670;-79
2023/04/25 04:15:13;;;;;;;9.85;2.45;;;7.60;99.90;;;;;;6061451;23;101261;-79
2023/04/25 04:17:42;;;;;;;13.93;2.65;;;7.50;99.90;;;;;;6061333;23;98578;-79
2023/04/25 04:20:10;;;;;;;13.88;3.65;;;7.50;99.90;;;;;;6061304;23;98636;-79
2023/04/25 04:22:39;;;;;;;10.88;2.78;;;7.50;99.90;;;;;;6060106;23;102334;-79
2023/04/25 04:25:11;;;;;;;9.48;2.33;;;7.40;99.90;;;;;;6061102;23;102098;-79
2023/04/25 04:28:04;;;;;;;10.52;2.75;;;7.30;99.90;;;;;;6057385;23;98682;-79
2023/04/25 04:30:58;;;;;;;14.77;2.07;;;7.20;99.90;;;;;;6059829;23;98558;-79
2023/04/25 04:33:25;;;;;;;8.80;2.70;;;7.10;99.90;;;;;;6036706;23;101750;-79
2023/04/25 04:35:57;;;;;;;13.15;2.53;;;7.10;99.90;;;;;;6061129;23;101347;-79
2023/04/25 04:38:25;;;;;;;12.02;2.50;;;7.10;99.90;;;;;;6061161;23;98575;-79
2023/04/25 04:40:55;;;;;;;10.32;2.42;;;7.00;99.90;;;;;;6038053;23;97833;-79
2023/04/25 04:43:41;;;;;;;10.73;2.30;;;7.00;99.90;;;;;;6081784;23;98840;-79
2023/04/25 04:46:37;;;;;;;11.25;2.08;;;6.90;99.90;;;;;;6041406;23;101622;-79
2023/04/25 04:49:23;;;;;;;7.85;2.60;;;6.90;99.90;;;;;;6062609;23;99391;-79
2023/04/25 04:52:08;;;;;;;10.43;2.20;;;6.90;99.90;;;;;;6062641;23;98510;-79
2023/04/25 04:54:55;;;;;;;12.25;2.50;;;6.90;99.90;;;;;;6060654;23;99883;-79
2023/04/25 04:57:40;;;;;;;12.10;2.80;;;6.90;99.90;;;;;;6061039;23;101367;-79
2023/04/25 05:00:15;;;;;;;8.25;2.22;;;6.90;99.90;;;;;;6061478;23;98511;-79
2023/04/25 05:03:00;;;;;;;8.63;2.22;;;6.90;99.90;;;;;;6063305;23;98412;-79
2023/04/25 05:06:00;;;;;;;11.88;2.30;;;6.90;99.90;;;;;;6013439;23;99232;-79
2023/04/25 05:08:47;;;;;;;10.73;2.40;;;7.00;99.90;;;;;;6051870;23;97899;-79
2023/04/25 05:11:32;;;;;;;13.73;2.45;;;7.40;99.90;;;;;;6040751;23;98522;-80
2023/04/25 05:14:38;;;;;;;12.45;2.28;;;7.80;99.90;;;;;;5973658;23;99390;-80
2023/04/25 05:17:23;;;;;;;8.27;2.10;;;8.20;99.90;;;;;;5952701;23;99411;-80
2023/04/25 05:20:19;;;;;;;7.40;1.95;;;8.50;99.90;;;;;;6020098;23;99513;-80
2023/04/25 05:23:04;;;;;;;7.82;2.08;;;8.90;99.90;;;;;;6061790;23;98545;-80
2023/04/25 05:25:53;;;;;;;10.82;2.10;;;9.40;99.90;;;;;;6041129;23;98675;-80
2023/04/25 05:28:55;;;;;;;8.80;3.88;;;10.00;99.90;;;;;;6023609;23;99108;-79
2023/04/25 05:31:37;;;;;;;7.72;2.38;;;10.50;99.90;;;;;;6060757;23;101325;-80
2023/04/25 05:34:09;;;;;;;9.98;2.25;;;11.00;99.90;;;;;;6061491;23;98915;-80
2023/04/25 05:36:55;;;;;;;7.88;2.33;;;11.50;99.90;;;;;;6061626;23;97834;-80
2023/04/25 05:39:23;;;;;;;11.18;2.15;;;12.20;99.90;;;;;;6060681;23;101614;-80
2023/04/25 05:42:14;;;;;;;6.78;2.08;;;12.60;99.90;;;;;;6041749;23;101354;-80
2023/04/25 05:45:00;;;;;;;11.25;2.47;;;12.70;99.90;;;;;;6082024;23;99167;-80
2023/04/25 05:47:46;;;;;;;11.23;2.55;;;12.50;99.90;;;;;;6062551;23;98554;-80
2023/04/25 05:50:24;;;;;;;5.68;2.35;;;12.20;99.90;;;;;;6061081;23;102084;-80
2023/04/25 05:52:54;;;;;;;8.93;2.10;;;11.60;99.90;;;;;;6060858;23;101576;-79
2023/04/25 05:55:34;;;;;;;11.15;2.30;;;11.10;99.90;;;;;;6061633;23;98547;-80
2023/04/25 05:58:12;;;;;;;3.13;1.48;;;10.40;99.90;;;;;;6061074;23;98512;-79
2023/04/25 06:00:41;;;;;;;8.25;1.60;;;9.90;99.90;;;;;;6060539;23;101624;-79
2023/04/25 06:03:09;;;;;;;8.23;1.35;;;9.60;99.90;;;;;;6060845;23;101577;-80
2023/04/25 06:05:36;;;;;;;4.70;1.20;;;9.40;99.90;;;;;;6036797;23;98465;-80
2023/04/25 06:08:04;;;;;;;4.85;1.38;;;9.40;99.90;;;;;;6061280;23;99243;-79
2023/04/25 06:10:30;;;;;;;5.32;1.48;;;9.40;99.90;;;;;;6062202;23;99959;-80
2023/04/25 06:12:58;;;;;;;6.82;1.88;;;9.60;99.90;;;;;;6060368;23;102036;-80
2023/04/25 06:15:26;;;;;;;6.80;1.65;;;9.70;99.90;;;;;;6061333;23;99116;-80
2023/04/25 06:17:55;;;;;;;6.70;1.60;;;9.80;99.90;;;;;;6060632;23;98706;-80
2023/04/25 06:20:24;;;;;;;5.20;1.70;;;10.00;99.90;;;;;;6060561;23;101982;-80
2023/04/25 06:22:52;;;;;;;6.80;1.70;;;10.20;99.90;;;;;;6060599;23;102166;-80
2023/04/25 06:25:24;;;;;;;4.97;1.70;;;10.50;99.90;;;;;;6060991;23;98506;-80
2023/04/25 06:27:51;;;;;;;4.15;2.22;;;11.10;99.90;;;;;;6061319;23;97781;-79
2023/04/25 06:30:22;;;;;;;8.20;2.33;;;12.10;99.90;;;;;;6060563;23;101779;-80
2023/04/25 06:32:52;;;;;;;7.57;1.90;;;12.90;99.90;;;;;;6060237;23;101204;-80
2023/04/25 06:35:20;;;;;;;7.38;1.85;;;13.40;99.70;;;;;;6060903;23;99214;-80
2023/04/25 06:37:47;;;;;;;5.20;1.38;;;13.40;98.60;;;;;;6060920;23;98553;-80
2023/04/25 06:40:14;;;;;;;6.20;1.83;;;13.20;97.90;;;;;;6060323;23;101504;-80
2023/04/25 06:42:41;;;;;;;8.32;1.83;;;12.70;98.60;;;;;;6084777;23;98991;-80
2023/04/25 06:45:27;;;;;;;7.88;2.00;;;12.40;99.20;;;;;;6062834;23;98348;-79
2023/04/25 06:47:54;;;;;;;5.78;1.75;;;11.90;99.50;;;;;;6060392;23;98540;-79
2023/04/25 06:50:21;;;;;;;6.68;2.10;;;11.50;98.90;;;;;;6060830;23;102086;-79
2023/04/25 06:52:48;;;;;;;11.35;2.67;;;11.20;99.90;;;;;;6060674;23;101550;-79
2023/04/25 06:55:17;;;;;;;7.68;2.05;;;10.90;99.90;;;;;;6037087;23;99318;-79
2023/04/25 06:58:04;;;;;;;3.80;1.88;;;10.70;99.90;;;;;;6060694;23;98642;-80
2023/04/25 07:00:50;;;;;;;5.60;1.85;;;10.80;99.90;;;;;;6080042;23;100828;-79
2023/04/25 07:03:20;;;;;;;6.47;1.88;;;11.10;99.90;;;;;;6060188;23;101540;-80
2023/04/25 07:05:48;;;;;;;6.03;1.77;;;11.20;99.80;;;;;;6060618;23;98536;-80
2023/04/25 07:08:15;;;;;;;4.80;1.67;;;11.40;99.90;;;;;;6060705;23;98498;-80
2023/04/25 07:10:43;;;;;;;5.85;1.73;;;11.50;99.90;;;;;;6059989;23;101132;-79
2023/04/25 07:13:10;;;;;;;4.63;1.65;;;11.60;98.80;;;;;;6060186;23;101666;-79
2023/04/25 07:15:37;;;;;;;7.60;1.88;;;11.80;99.40;;;;;;6060403;23;98479;-79
2023/04/25 07:18:05;;;;;;;5.60;2.08;;;12.20;98.90;;;;;;6060836;23;97891;-79
2023/04/25 07:20:32;;;;;;;5.53;2.03;;;12.80;99.00;;;;;;6061991;23;99193;-80
2023/04/25 07:23:00;;;;;;;7.05;2.03;;;13.40;98.40;;;;;;6059748;23;100094;-80
2023/04/25 07:25:27;;;;;;;7.68;1.67;;;13.90;97.40;;;;;;6060488;23;99258;-80
2023/04/25 07:27:54;;;;;;;5.57;1.98;;;14.40;96.40;;;;;;6060429;23;98554;-80
2023/04/25 07:30:22;;;;;;;8.23;2.25;;;14.60;95.60;;;;;;6036218;23;101960;-80
2023/04/25 07:32:50;;;;;;;9.55;2.40;;;15.20;95.60;;;;;;6060185;23;98926;-80
2023/04/25 07:35:17;;;;;;;7.05;1.95;;;15.80;94.70;;;;;;6060700;23;99176;-80
2023/04/25 07:37:44;;;;;;;9.27;1.90;;;16.20;93.50;;;;;;6060557;23;98562;-80
2023/04/25 07:40:17;;;;;;;7.97;2.15;;;16.40;92.60;;;;;;6060068;23;101528;-80
2023/04/25 07:42:51;;;;;;;6.60;1.75;;;15.70;93.00;;;;;;6037650;23;101464;-79
2023/04/25 07:45:26;;;;;;;8.52;1.98;;;15.10;94.40;;;;;;6060727;23;98609;-80
2023/04/25 07:47:53;;;;;;;6.95;2.08;;;14.00;98.20;;;;;;6059893;23;98451;-79
2023/04/25 07:50:21;;;;;;;6.47;1.95;;;13.40;99.10;;;;;;6035973;23;102522;-80
2023/04/25 07:52:48;;;;;;;6.80;1.83;;;12.90;99.90;;;;;;6060006;23;102263;-80
2023/04/25 07:55:26;;;;;;;7.60;2.20;;;12.60;99.90;;;;;;6060723;23;98798;-80
2023/04/25 07:58:01;;;;;;;8.00;2.47;;;12.30;99.90;;;;;;6037528;23;98565;-80
2023/04/25 08:00:30;;;;;;;9.02;2.50;;;12.50;99.90;;;;;;6059725;23;101473;-80
2023/04/25 08:03:17;;;;;;;5.25;2.20;;;13.20;99.90;;;;;;6061176;23;99854;-80
2023/04/25 08:05:45;;;;;;;5.45;2.13;;;14.40;99.10;;;;;;6060399;23;98632;-80
2023/04/25 08:08:13;;;;;;;7.45;2.25;;;15.70;98.00;;;;;;6060421;23;97774;-80
2023/04/25 08:10:41;;;;;;;4.97;1.88;;;17.20;95.90;;;;;;6059854;23;101585;-80
2023/04/25 08:13:08;;;;;;;7.22;2.20;;;18.50;93.30;;;;;;6059592;23;101302;-80
2023/04/25 08:15:36;;;;;;;4.25;1.48;;;19.00;90.70;;;;;;6059747;23;99282;-80
2023/04/25 08:18:03;;;;;;;3.40;1.25;;;19.10;81.10;;;;;;6036026;23;98616;-80
2023/04/25 08:20:31;;;;;;;5.10;1.60;;;18.40;78.20;;;;;;6035654;23;101780;-80
2023/04/25 08:23:00;;;;;;;5.72;1.90;;;17.60;78.40;;;;;;6059647;23;100985;-80
2023/04/25 08:25:46;;;;;;;5.25;1.83;;;17.00;79.20;;;;;;6065301;23;99044;-80
2023/04/25 08:28:16;;;;;;;4.03;1.85;;;16.80;82.70;;;;;;6061195;23;98549;-80
2023/04/25 08:30:44;;;;;;;4.13;1.55;;;16.30;80.70;;;;;;6061074;23;101724;-80
2023/04/25 08:33:13;;;;;;;3.45;1.40;;;16.10;83.90;;;;;;6061214;23;101336;-80
2023/04/25 08:35:58;;;;;;;3.38;1.42;;;15.90;83.50;;;;;;6063105;23;98397;-80
2023/04/25 08:38:27;;;;;;;6.50;1.92;;;15.80;84.40;;;;;;6061561;23;98961;-80
2023/04/25 08:40:55;;;;;;;4.75;1.48;;;15.70;83.50;;;;;;6036442;23;102420;-80
2023/04/25 08:43:24;;;;;;;5.43;1.75;;;15.40;83.00;;;;;;6060915;23;101734;-80
2023/04/25 08:45:56;;;;;;;6.97;1.85;;;15.10;86.80;;;;;;6061479;23;98418;-80
2023/04/25 08:48:45;;;;;;;2.45;1.13;;;15.20;88.10;;;;;;6061054;23;98652;-80
2023/04/25 08:51:22;;;;;;;4.07;1.15;;;15.10;86.10;;;;;;6060512;23;102011;-80
2023/04/25 08:53:52;;;;;;;2.53;1.10;;;14.80;83.20;;;;;;6061336;23;101471;-80
2023/04/25 08:56:23;;;;;;;4.07;1.30;;;14.20;83.30;;;;;;6038030;23;98506;-80
2023/04/25 08:58:50;;;;;;;4.45;1.20;;;13.80;85.20;;;;;;6063631;23;97754;-80
2023/04/25 09:01:18;;;;;;;6.45;0.90;;;13.50;89.60;;;;;;6036547;23;101622;-79
2023/04/25 09:03:50;;;;;;;2.60;0.85;;;12.80;91.00;;;;;;6060855;23;100842;-79
2023/04/25 09:06:19;;;;;;;3.50;0.93;;;12.20;92.50;;;;;;6060894;23;99233;-80
2023/04/25 09:08:50;;;;;;;1.88;1.00;;;11.90;93.70;;;;;;6061569;23;98571;-80
2023/04/25 09:11:17;;;;;;;2.05;0.70;;;11.80;94.30;;;;;;6036468;23;101849;-80
2023/04/25 09:13:46;;;;;;;1.40;0.80;;;11.90;93.80;;;;;;6060929;23;101500;-80
2023/04/25 09:16:23;;;;;;;1.05;0.50;;;12.30;94.00;;;;;;6061359;23;98539;-80
2023/04/25 09:19:22;;;;;;;1.98;0.73;;;12.30;93.30;;;;;;6042773;23;98561;-80
2023/04/25 09:22:05;;;;;;;2.78;0.80;;;12.50;94.10;;;;;;6060814;23;101484;-80
2023/04/25 09:24:34;;;;;;;2.05;1.08;;;12.70;92.70;;;;;;6037290;23;101480;-80
2023/04/25 09:27:09;;;;;;;3.80;1.08;;;12.60;92.30;;;;;;6061238;23;98586;-80
2023/04/25 09:29:39;;;;;;;2.58;0.90;;;12.70;91.90;;;;;;6063210;23;98935;-80
2023/04/25 09:32:25;;;;;;;4.03;0.70;;;12.70;92.40;;;;;;6059925;23;102302;-80
2023/04/25 09:34:56;;;;;;;2.22;0.70;;;12.70;91.70;;;;;;6060953;23;102115;-80
2023/04/25 09:37:26;;;;;;;3.53;1.15;;;12.50;91.50;;;;;;6036829;23;98674;-80
2023/04/25 09:40:20;;;;;;;3.63;1.20;;;12.60;92.90;;;;;;6028277;23;98864;-80
2023/04/25 09:42:55;;;;;;;5.07;1.40;;;12.60;92.50;;;;;;6060894;23;101254;-80
2023/04/25 09:45:23;;;;;;;6.80;1.70;;;12.60;92.30;;;;;;6060514;23;101319;-80
2023/04/25 09:47:50;;;;;;;3.33;1.15;;;12.60;92.20;;;;;;6061371;23;98426;-80
2023/04/25 09:50:24;;;;;;;4.47;1.20;;;12.50;91.20;;;;;;6061379;23;97811;-80
2023/04/25 09:53:05;;;;;;;5.57;2.00;;;12.30;91.10;;;;;;6037990;23;101050;-80
2023/04/25 09:56:03;;;;;;;4.68;1.90;;;12.20;92.00;;;;;;6060900;23;101355;-80
2023/04/25 09:58:30;;;;;;;2.92;1.30;;;12.30;91.50;;;;;;6060903;23;99604;-80
2023/04/25 10:01:02;;;;;;;3.63;1.60;;;12.40;91.10;;;;;;6085481;23;98634;-80
2023/04/25 10:03:40;;;;;;;3.75;1.42;;;12.50;91.50;;;;;;6060869;23;101579;-80
2023/04/25 10:06:22;;;;;;;7.50;1.50;;;12.70;92.40;;;;;;6038700;23;101068;-80
2023/04/25 10:08:52;;;;;;;3.00;0.90;;;12.80;91.70;;;;;;6063179;23;98382;-80
2023/04/25 10:11:22;;;;;;;3.42;1.17;;;12.90;91.40;;;;;;6085807;23;99020;-80
2023/04/25 10:13:50;;;;;;;6.70;1.70;;;12.80;91.40;;;;;;6084539;23;99404;-80
2023/04/25 10:16:18;;;;;;;4.95;1.40;;;13.00;92.70;;;;;;6062197;23;109389;-80
2023/04/25 10:18:45;;;;;;;3.28;1.25;;;13.10;91.00;;;;;;6061146;23;98629;-80
2023/04/25 10:21:15;;;;;;;4.47;1.25;;;12.60;95.40;;;;;;6062624;23;99106;-79
2023/04/25 10:23:42;;;;;;;2.58;1.17;;;10.80;99.90;;;;;;6061936;23;99890;-79
2023/04/25 10:26:12;;;;;;;3.80;1.23;;;10.00;99.90;;;;;;6060857;23;100130;-80
2023/04/25 10:28:59;;;;;;;3.20;1.20;;;9.50;99.90;;;;;;6061484;23;99101;-80
2023/04/25 10:31:26;;;;;;;2.70;0.90;;;9.30;99.90;;;;;;6062660;23;98370;-80
2023/04/25 10:33:53;;;;;;;2.88;1.10;;;9.20;99.90;;;;;;6036405;23;103118;-80
2023/04/25 10:36:22;;;;;;;5.00;1.23;;;9.20;99.90;;;;;;6084997;23;99328;-80
2023/04/25 10:38:50;;;;;;;3.55;1.08;;;9.50;99.90;;;;;;6061056;23;98445;-80
2023/04/25 10:41:19;;;;;;;6.45;1.20;;;9.80;99.90;;;;;;6061402;23;97836;-79
2023/04/25 10:43:47;;;;;;;2.95;1.10;;;10.20;99.90;;;;;;6060450;23;101737;-79
2023/04/25 10:46:19;;;;;;;4.90;2.28;;;10.60;99.90;;;;;;6060306;23;101909;-81
2023/04/25 10:48:57;;;;;;;5.22;1.30;;;11.00;99.90;;;;;;6059857;23;99193;-82
2023/04/25 10:51:30;;;;;;;5.97;1.60;;;11.40;99.90;;;;;;6061014;23;98438;-82
2023/04/25 10:54:08;;;;;;;4.45;1.60;;;11.70;99.90;;;;;;6060831;23;99439;-82
2023/04/25 10:56:44;;;;;;;5.25;1.70;;;11.90;99.90;;;;;;6060270;23;99058;-82
2023/04/25 10:59:19;;;;;;;8.15;2.15;;;12.30;99.90;;;;;;6061030;23;98569;-81
2023/04/25 11:01:48;;;;;;;4.75;1.52;;;12.40;99.90;;;;;;6062321;23;98500;-82
2023/04/25 11:04:21;;;;;;;2.45;1.15;;;12.10;99.90;;;;;;6062254;23;99416;-82
2023/04/25 11:07:05;;;;;;;2.40;1.20;;;11.70;99.90;;;;;;6036932;23;101659;-82
2023/04/25 11:09:35;;;;;;;3.47;1.40;;;11.40;99.90;;;;;;6060979;23;98523;-81
2023/04/25 11:12:02;;;;;;;8.00;2.58;;;11.30;99.90;;;;;;6061065;23;99121;-81
2023/04/25 11:14:29;;;;;;;2.63;1.10;;;10.80;99.90;;;;;;6059557;23;109038;-81
2023/04/25 11:16:57;;;;;;;4.70;1.20;;;10.30;99.90;;;;;;6060274;23;102356;-82
2023/04/25 11:19:26;;;;;;;5.47;1.60;;;10.00;99.90;;;;;;6084970;23;98501;-82
2023/04/25 11:21:58;;;;;;;5.88;1.63;;;9.80;99.90;;;;;;6085070;23;98544;-82
2023/04/25 11:24:28;;;;;;;4.22;1.42;;;9.90;99.90;;;;;;6084609;23;99234;-82
2023/04/25 11:26:56;;;;;;;4.57;2.10;;;10.10;99.90;;;;;;6060299;23;101809;-81
2023/04/25 11:29:26;;;;;;;6.40;1.52;;;10.30;99.90;;;;;;6062430;23;99322;-81
2023/04/25 11:31:57;;;;;;;7.07;1.50;;;10.50;99.90;;;;;;6060973;23;97769;-82
2023/04/25 11:34:25;;;;;;;8.30;2.17;;;10.70;99.90;;;;;;6060224;23;101775;-82
2023/04/25 11:36:53;;;;;;;4.20;1.40;;;10.90;99.90;;;;;;6060071;23;101556;-81
2023/04/25 11:39:21;;;;;;;3.17;1.20;;;11.00;99.90;;;;;;6060433;23;99241;-81
2023/04/25 11:41:48;;;;;;;4.40;1.30;;;10.90;99.90;;;;;;6060486;23;98695;-81
2023/04/25 11:44:19;;;;;;;6.60;1.52;;;10.70;99.90;;;;;;6061914;23;99410;-81
2023/04/25 11:46:47;;;;;;;7.55;1.33;;;10.50;99.90;;;;;;6059996;23;101429;-79
2023/04/25 11:49:15;;;;;;;5.97;1.58;;;10.60;99.90;;;;;;6060198;23;100006;-79
2023/04/25 11:51:43;;;;;;;4.78;1.35;;;10.80;99.90;;;;;;6062010;23;98875;-79
2023/04/25 11:54:11;;;;;;;3.28;1.15;;;11.00;99.90;;;;;;6035578;23;101956;-79
2023/04/25 11:56:45;;;;;;;2.85;1.30;;;11.10;99.90;;;;;;6061981;23;99024;-79
2023/04/25 11:59:12;;;;;;;;;;;11.20;99.90;;;;;;6061386;23;98598;-78
2023/04/25 12:01:41;;;;;;;5.35;1.20;;;11.10;99.90;;;;;;6064525;23;98515;-79
2023/04/25 12:04:20;;;;;;;5.53;1.65;;;11.20;99.90;;;;;;6085210;23;100280;-80
2023/04/25 12:06:49;;;;;;;4.80;1.52;;;11.50;99.90;;;;;;6085773;23;99648;-79
2023/04/25 12:09:19;;;;;;;5.07;1.10;;;11.60;99.40;;;;;;6063531;23;98483;-79
2023/04/25 12:11:48;;;;;;;6.50;1.40;;;12.00;99.30;;;;;;6061427;23;98965;-79
2023/04/25 12:14:23;;;;;;;4.63;1.92;;;12.30;98.70;;;;;;6062895;23;99383;-79
2023/04/25 12:16:51;;;;;;;4.32;1.45;;;12.50;97.10;;;;;;6062918;23;99167;-80
2023/04/25 12:19:19;;;;;;;5.43;1.17;;;12.60;97.50;;;;;;6062881;23;99011;-79
2023/04/25 12:21:48;;;;;;;3.67;1.15;;;12.70;96.40;;;;;;6063570;23;97722;-79
2023/04/25 12:24:24;;;;;;;4.38;1.25;;;12.50;95.20;;;;;;6061604;23;99237;-82
2023/04/25 12:26:59;;;;;;;2.25;0.80;;;12.60;96.30;;;;;;6062856;23;99070;-82
2023/04/25 12:29:28;;;;;;;4.50;1.10;;;12.70;93.50;;;;;;6061519;23;99723;-81
2023/04/25 12:32:01;;;;;;;;;;;12.70;94.40;;;;;;6085770;23;98578;-82
2023/04/25 12:34:28;;;;;;;3.70;1.38;;;12.50;94.70;;;;;;6062824;23;99254;-82
2023/04/25 12:36:56;;;;;;;4.20;1.08;;;12.50;95.30;;;;;;6061552;23;99125;-82
2023/04/25 12:39:27;;;;;;;2.83;1.10;;;12.60;95.00;;;;;;6061582;23;98491;-82
2023/04/25 12:41:54;;;;;;;4.95;1.65;;;12.70;95.40;;;;;;6061327;23;98480;-82
2023/04/25 12:44:22;;;;;;;2.72;1.30;;;12.60;94.00;;;;;;6085673;23;99145;-82
2023/04/25 12:46:49;;;;;;;3.85;1.30;;;12.60;93.30;;;;;;6063035;23;99102;-81
2023/04/25 12:49:16;;;;;;;4.03;1.23;;;12.60;93.40;;;;;;6061232;23;98555;-82
2023/04/25 12:51:45;;;;;;;3.13;1.25;;;12.80;93.80;;;;;;6037252;23;98520;-82
2023/04/25 12:54:12;;;;;;;4.07;2.20;;;12.80;93.90;;;;;;6060391;23;102446;-82
2023/04/25 12:56:41;;;;;;;5.72;1.45;;;12.90;93.90;;;;;;6060559;23;102527;-81
2023/04/25 12:59:09;;;;;;;3.33;1.67;;;13.10;94.70;;;;;;6062824;23;98510;-81
2023/04/25 13:01:36;;;;;;;4.43;1.48;;;13.10;93.40;;;;;;6036982;23;98959;-81
2023/04/25 13:04:03;;;;;;;4.38;1.63;;;12.80;92.30;;;;;;6061477;23;99188;-82
2023/04/25 13:06:30;;;;;;;3.92;1.48;;;12.70;93.90;;;;;;6061136;23;99047;-82
2023/04/25 13:08:57;;;;;;;5.43;1.50;;;12.70;94.50;;;;;;6062843;23;98461;-82